createdAt,value
2023-02-26T00:01:33.143Z,1.63
2023-02-26T00:04:02.993Z,1.30
2023-02-26T00:06:34.250Z,1.80
2023-02-26T00:09:02.472Z,1.65
2023-02-26T00:11:30.372Z,1.33
2023-02-26T00:13:58.243Z,1.33
2023-02-26T00:16:32.448Z,1.50
2023-02-26T00:19:05.204Z,1.05
2023-02-26T00:21:34.222Z,2.08
2023-02-26T00:24:02.384Z,1.52
2023-02-26T00:26:31.851Z,1.50
2023-02-26T00:28:59.716Z,1.45
2023-02-26T00:31:28.204Z,1.52
2023-02-26T00:33:57.485Z,1.40
2023-02-26T00:36:29.937Z,1.38
2023-02-26T00:39:20.471Z,1.20
2023-02-26T00:41:48.829Z,1.00
2023-02-26T00:44:16.237Z,1.10
2023-02-26T00:46:49.223Z,1.35
2023-02-26T00:49:22.216Z,1.20
2023-02-26T00:51:54.077Z,1.33
2023-02-26T00:54:24.229Z,1.30
2023-02-26T00:56:53.364Z,1.30
2023-02-26T00:59:21.830Z,1.15
2023-02-26T01:01:50.186Z,1.10
2023-02-26T01:04:20.135Z,1.17
2023-02-26T01:06:50.847Z,1.20
2023-02-26T01:09:21.995Z,1.25
2023-02-26T01:11:50.623Z,1.25
2023-02-26T01:14:19.728Z,1.33
2023-02-26T01:17:27.316Z,1.20
2023-02-26T01:19:58.356Z,1.08
2023-02-26T01:22:36.349Z,1.17
2023-02-26T01:25:16.305Z,0.80
2023-02-26T01:27:44.205Z,0.95
2023-02-26T01:30:11.882Z,0.90
2023-02-26T01:33:00.684Z,1.15
2023-02-26T01:35:28.462Z,1.20
2023-02-26T01:38:14.943Z,1.02
2023-02-26T01:40:42.607Z,1.20
2023-02-26T01:43:17.127Z,1.30
2023-02-26T01:48:37.410Z,1.08
2023-02-26T01:51:06.086Z,1.20
2023-02-26T01:53:33.359Z,1.27
2023-02-26T01:56:04.973Z,0.93
2023-02-26T01:58:36.067Z,1.13
2023-02-26T02:01:05.350Z,1.20
2023-02-26T02:03:37.705Z,1.02
2023-02-26T02:06:12.193Z,1.10
2023-02-26T02:08:39.814Z,1.38
2023-02-26T02:11:11.365Z,1.45
2023-02-26T02:13:49.437Z,1.00
2023-02-26T02:16:42.571Z,1.10
2023-02-26T02:19:24.418Z,1.08
2023-02-26T02:22:19.075Z,1.20
2023-02-26T02:25:26.084Z,1.08
2023-02-26T02:27:58.840Z,1.20
2023-02-26T02:30:30.067Z,1.52
2023-02-26T02:33:02.445Z,1.40
2023-02-26T02:35:37.014Z,1.38
2023-02-26T02:40:56.368Z,1.55
2023-02-26T02:43:28.254Z,1.42
2023-02-26T02:46:06.966Z,1.80
2023-02-26T02:48:38.818Z,2.10
2023-02-26T02:51:09.102Z,1.70
2023-02-26T02:53:49.055Z,1.80
2023-02-26T02:56:24.020Z,2.10
2023-02-26T02:59:03.287Z,2.30
2023-02-26T03:01:32.076Z,2.25
2023-02-26T03:04:15.794Z,2.22
2023-02-26T03:06:43.767Z,2.17
2023-02-26T03:09:11.127Z,2.35
2023-02-26T03:11:42.523Z,2.47
2023-02-26T03:14:11.681Z,2.10
2023-02-26T03:17:06.226Z,2.47
2023-02-26T03:19:37.051Z,2.60
2023-02-26T03:22:29.927Z,2.20
2023-02-26T03:25:08.827Z,2.40
2023-02-26T03:27:46.539Z,2.70
2023-02-26T03:30:26.967Z,2.65
2023-02-26T03:32:59.045Z,2.40
2023-02-26T03:35:52.617Z,2.38
2023-02-26T03:38:45.188Z,2.20
2023-02-26T03:41:18.724Z,2.50
2023-02-26T03:43:55.586Z,2.70
2023-02-26T03:46:29.063Z,3.45
2023-02-26T03:48:59.821Z,3.60
2023-02-26T03:51:29.244Z,3.40
2023-02-26T03:54:14.036Z,2.53
2023-02-26T03:56:47.752Z,2.75
2023-02-26T03:59:35.694Z,3.83
2023-02-26T04:02:59.924Z,2.90
2023-02-26T04:05:31.893Z,2.67
2023-02-26T04:07:59.653Z,2.70
2023-02-26T04:10:54.174Z,2.45
2023-02-26T04:13:21.883Z,1.92
2023-02-26T04:15:50.098Z,2.92
2023-02-26T04:18:18.372Z,3.33
2023-02-26T04:20:45.933Z,3.75
2023-02-26T04:23:13.523Z,3.70
2023-02-26T04:25:43.835Z,3.40
2023-02-26T04:28:12.808Z,3.13
2023-02-26T04:30:40.671Z,3.15
2023-02-26T04:33:10.402Z,3.33
2023-02-26T04:35:37.988Z,3.97
2023-02-26T04:38:05.587Z,3.72
2023-02-26T04:40:32.820Z,3.63
2023-02-26T04:43:00.297Z,3.50
2023-02-26T04:45:31.147Z,4.13
2023-02-26T04:47:58.220Z,3.75
2023-02-26T04:50:25.600Z,3.92
2023-02-26T04:52:54.203Z,4.05
2023-02-26T04:55:21.824Z,4.35
2023-02-26T04:57:49.043Z,3.58
2023-02-26T05:00:17.603Z,2.97
2023-02-26T05:02:44.822Z,2.80
2023-02-26T05:05:11.889Z,3.10
2023-02-26T05:07:39.600Z,2.60
2023-02-26T05:10:08.646Z,2.70
2023-02-26T05:12:36.789Z,2.75
2023-02-26T05:15:06.107Z,3.20
2023-02-26T05:17:34.052Z,2.90
2023-02-26T05:20:01.255Z,2.90
2023-02-26T05:22:28.463Z,3.08
2023-02-26T05:24:55.607Z,2.70
2023-02-26T05:27:22.993Z,3.10
2023-02-26T05:29:50.951Z,3.28
2023-02-26T05:32:18.517Z,3.67
2023-02-26T05:34:46.585Z,2.70
2023-02-26T05:37:13.971Z,2.72
2023-02-26T05:39:42.219Z,3.10
2023-02-26T05:42:09.871Z,2.88
2023-02-26T05:44:36.991Z,3.63
2023-02-26T05:47:04.476Z,2.85
2023-02-26T05:49:31.597Z,2.92
2023-02-26T05:51:58.696Z,3.15
2023-02-26T05:54:25.884Z,3.17
2023-02-26T05:56:53.115Z,3.03
2023-02-26T05:59:20.382Z,3.30
2023-02-26T06:01:47.565Z,3.28
2023-02-26T06:04:14.750Z,3.08
2023-02-26T06:06:41.907Z,3.15
2023-02-26T06:09:09.099Z,3.78
2023-02-26T06:11:36.593Z,3.88
2023-02-26T06:14:03.725Z,3.53
2023-02-26T06:16:31.255Z,3.75
2023-02-26T06:18:59.024Z,3.22
2023-02-26T06:21:26.382Z,3.47
2023-02-26T06:23:53.548Z,3.60
2023-02-26T06:26:23.798Z,3.15
2023-02-26T06:28:51.402Z,4.53
2023-02-26T06:31:18.642Z,3.47
2023-02-26T06:33:46.310Z,3.38
2023-02-26T06:36:13.475Z,3.13
2023-02-26T06:38:40.775Z,3.60
2023-02-26T06:41:08.987Z,3.85
2023-02-26T06:43:36.316Z,4.50
2023-02-26T06:46:03.664Z,5.93
2023-02-26T06:48:31.181Z,5.45
2023-02-26T06:50:58.213Z,5.80
2023-02-26T06:53:25.637Z,5.03
2023-02-26T06:55:53.651Z,4.80
2023-02-26T06:58:21.250Z,3.47
2023-02-26T07:00:48.453Z,3.70
2023-02-26T07:03:17.950Z,3.88
2023-02-26T07:05:46.549Z,2.53
2023-02-26T07:08:14.287Z,3.20
2023-02-26T07:10:42.498Z,10.15
2023-02-26T07:13:09.446Z,6.13
2023-02-26T07:15:36.602Z,4.00
2023-02-26T07:18:03.807Z,3.08
2023-02-26T07:20:31.220Z,2.90
2023-02-26T07:22:58.341Z,3.03
2023-02-26T07:25:25.776Z,2.67
2023-02-26T07:27:53.131Z,2.70
2023-02-26T07:30:20.444Z,3.00
2023-02-26T07:32:47.614Z,2.72
2023-02-26T07:35:14.796Z,2.72
2023-02-26T07:37:42.207Z,2.75
2023-02-26T07:40:10.066Z,3.22
2023-02-26T07:42:37.833Z,3.53
2023-02-26T07:45:06.732Z,2.83
2023-02-26T07:47:34.876Z,2.70
2023-02-26T07:50:01.949Z,3.20
2023-02-26T07:52:29.286Z,3.38
2023-02-26T07:54:56.507Z,2.65
2023-02-26T07:57:23.698Z,2.90
2023-02-26T07:59:51.138Z,2.97
2023-02-26T08:02:18.957Z,2.70
2023-02-26T08:04:46.299Z,2.78
2023-02-26T08:07:13.485Z,2.63
2023-02-26T08:09:41.121Z,2.47
2023-02-26T08:12:08.317Z,2.58
2023-02-26T08:14:35.412Z,2.83
2023-02-26T08:17:02.629Z,2.70
2023-02-26T08:19:29.810Z,3.17
2023-02-26T08:21:57.072Z,3.10
2023-02-26T08:24:24.169Z,2.83
2023-02-26T08:26:51.778Z,3.75
2023-02-26T08:29:19.741Z,2.90
2023-02-26T08:31:47.205Z,3.30
2023-02-26T08:34:16.068Z,3.63
2023-02-26T08:36:43.926Z,3.45
2023-02-26T08:39:11.267Z,3.15
2023-02-26T08:41:38.438Z,3.53
2023-02-26T08:44:06.122Z,3.50
2023-02-26T08:46:33.236Z,3.45
2023-02-26T08:49:00.643Z,3.40
2023-02-26T08:51:28.121Z,4.18
2023-02-26T08:53:55.617Z,3.80
2023-02-26T08:56:23.586Z,3.97
2023-02-26T08:58:51.169Z,3.97
2023-02-26T09:01:18.330Z,3.63
2023-02-26T09:03:45.589Z,3.65
2023-02-26T09:06:12.724Z,3.45
2023-02-26T09:08:40.036Z,3.53
2023-02-26T09:11:07.358Z,3.65
2023-02-26T09:13:34.565Z,3.50
2023-02-26T09:16:01.944Z,3.67
2023-02-26T09:18:29.847Z,4.18
2023-02-26T09:20:57.613Z,3.97
2023-02-26T09:23:25.938Z,4.45
2023-02-26T09:25:55.281Z,4.15
2023-02-26T09:28:24.540Z,4.20
2023-02-26T09:30:53.865Z,4.03
2023-02-26T09:33:22.823Z,3.80
2023-02-26T09:35:51.947Z,4.15
2023-02-26T09:38:20.077Z,3.78
2023-02-26T09:40:58.948Z,3.63
2023-02-26T09:43:52.294Z,4.10
2023-02-26T09:46:30.597Z,6.50
2023-02-26T09:49:06.478Z,4.05
2023-02-26T09:51:36.339Z,3.58
2023-02-26T09:54:16.824Z,4.55
2023-02-26T09:56:47.428Z,3.97
2023-02-26T09:59:15.335Z,5.28
2023-02-26T10:01:52.729Z,4.30
2023-02-26T10:04:34.919Z,3.35
2023-02-26T10:07:23.359Z,3.05
2023-02-26T10:10:02.974Z,3.80
2023-02-26T10:12:35.300Z,3.00
2023-02-26T10:15:12.512Z,3.33
2023-02-26T10:18:00.413Z,2.80
2023-02-26T10:20:37.469Z,3.05
2023-02-26T10:23:24.476Z,3.17
2023-02-26T10:25:59.208Z,2.55
2023-02-26T10:31:05.528Z,2.50
2023-02-26T10:34:07.461Z,2.78
2023-02-26T10:37:13.915Z,2.50
2023-02-26T10:40:09.872Z,2.47
2023-02-26T10:43:04.575Z,2.72
2023-02-26T10:46:11.653Z,1.80
2023-02-26T10:49:02.600Z,2.25
2023-02-26T10:51:37.236Z,2.10
2023-02-26T10:54:14.439Z,1.50
2023-02-26T10:56:43.376Z,1.98
2023-02-26T10:59:10.707Z,2.00
2023-02-26T11:01:38.559Z,1.98
2023-02-26T11:04:10.188Z,2.13
2023-02-26T11:06:55.740Z,1.90
2023-02-26T11:09:27.174Z,1.85
2023-02-26T11:11:57.120Z,1.83
2023-02-26T11:14:28.134Z,1.80
2023-02-26T11:17:00.932Z,1.90
2023-02-26T11:19:35.564Z,2.20
2023-02-26T11:24:38.843Z,2.33
2023-02-26T11:27:15.255Z,2.10
2023-02-26T11:29:54.393Z,2.10
2023-02-26T11:32:29.901Z,1.90
2023-02-26T11:34:58.157Z,1.85
2023-02-26T11:37:35.773Z,1.52
2023-02-26T11:40:14.880Z,1.50
2023-02-26T11:42:50.038Z,1.48
2023-02-26T11:45:20.160Z,2.08
2023-02-26T11:47:50.272Z,1.80
2023-02-26T11:50:23.678Z,1.80
2023-02-26T11:53:08.868Z,2.10
2023-02-26T11:55:44.586Z,1.60
2023-02-26T11:58:30.886Z,1.40
2023-02-26T12:01:01.360Z,1.55
2023-02-26T12:03:33.602Z,1.40
2023-02-26T12:06:02.383Z,1.60
2023-02-26T12:08:42.363Z,1.38
2023-02-26T12:11:11.479Z,1.75
2023-02-26T12:13:57.305Z,1.40
2023-02-26T12:16:40.277Z,0.97
2023-02-26T12:19:30.040Z,1.45
2023-02-26T12:22:18.439Z,1.77
2023-02-26T12:25:13.077Z,1.50
2023-02-26T12:27:48.525Z,1.05
2023-02-26T12:30:32.927Z,1.50
2023-02-26T12:33:10.609Z,0.93
2023-02-26T12:36:01.776Z,1.80
2023-02-26T12:38:44.219Z,2.50
2023-02-26T12:41:31.497Z,1.88
2023-02-26T12:44:02.543Z,1.30
2023-02-26T12:46:56.143Z,1.45
2023-02-26T12:49:40.552Z,1.45
2023-02-26T12:52:17.104Z,1.50
2023-02-26T12:54:52.740Z,1.55
2023-02-26T12:57:43.392Z,1.50
2023-02-26T13:00:23.583Z,1.20
2023-02-26T13:03:30.606Z,1.40
2023-02-26T13:05:59.093Z,1.55
2023-02-26T13:08:49.634Z,1.70
2023-02-26T13:11:44.779Z,2.33
2023-02-26T13:14:32.477Z,1.33
2023-02-26T13:17:10.087Z,2.10
2023-02-26T13:19:44.870Z,1.40
2023-02-26T13:22:21.371Z,1.55
2023-02-26T13:24:51.013Z,1.40
2023-02-26T13:27:18.861Z,1.63
2023-02-26T13:29:51.437Z,1.73
2023-02-26T13:32:25.398Z,1.60
2023-02-26T13:34:58.924Z,1.63
2023-02-26T13:37:28.115Z,1.67
2023-02-26T13:40:01.219Z,1.70
2023-02-26T13:42:44.542Z,1.88
2023-02-26T13:45:54.834Z,1.85
2023-02-26T13:48:43.282Z,1.13
2023-02-26T13:51:31.415Z,1.52
2023-02-26T13:54:01.966Z,1.33
2023-02-26T13:56:32.545Z,1.20
2023-02-26T13:59:20.149Z,1.20
2023-02-26T14:01:48.344Z,1.25
2023-02-26T14:04:28.503Z,1.17
2023-02-26T14:07:00.152Z,1.38
2023-02-26T14:09:28.717Z,1.08
2023-02-26T14:12:00.506Z,1.20
2023-02-26T14:14:37.419Z,2.72
2023-02-26T14:17:08.413Z,1.50
2023-02-26T14:19:44.507Z,2.35
2023-02-26T14:22:16.305Z,2.38
2023-02-26T14:24:55.948Z,2.70
2023-02-26T14:27:37.724Z,3.13
2023-02-26T14:30:12.710Z,1.77
2023-02-26T14:32:56.415Z,1.40
2023-02-26T14:35:30.432Z,1.27
2023-02-26T14:38:03.506Z,1.23
2023-02-26T14:40:38.856Z,1.60
2023-02-26T14:43:11.037Z,1.20
2023-02-26T14:45:41.493Z,1.58
2023-02-26T14:48:15.177Z,1.80
2023-02-26T14:51:12.242Z,1.30
2023-02-26T14:54:14.042Z,1.52
2023-02-26T14:57:04.583Z,1.70
2023-02-26T14:59:42.800Z,1.80
2023-02-26T15:02:28.642Z,1.15
2023-02-26T15:05:07.699Z,2.35
2023-02-26T15:07:58.151Z,1.17
2023-02-26T15:10:48.918Z,1.90
2023-02-26T15:13:39.174Z,1.92
2023-02-26T15:16:14.212Z,1.48
2023-02-26T15:19:04.985Z,1.20
2023-02-26T15:21:57.980Z,1.10
2023-02-26T15:24:26.706Z,1.48
2023-02-26T15:26:58.770Z,1.60
2023-02-26T15:29:31.302Z,1.85
2023-02-26T15:32:05.801Z,1.95
2023-02-26T15:34:34.332Z,1.65
2023-02-26T15:37:02.918Z,1.58
2023-02-26T15:39:30.050Z,1.25
2023-02-26T15:41:58.344Z,1.10
2023-02-26T15:44:30.520Z,1.40
2023-02-26T15:47:02.440Z,1.23
2023-02-26T15:49:37.436Z,1.08
2023-02-26T15:52:07.136Z,2.00
2023-02-26T15:54:43.847Z,2.10
2023-02-26T15:57:13.680Z,1.90
2023-02-26T15:59:44.225Z,1.98
2023-02-26T16:02:14.313Z,2.40
2023-02-26T16:04:43.414Z,2.25
2023-02-26T16:07:12.209Z,3.50
2023-02-26T16:09:44.762Z,2.20
2023-02-26T16:12:22.237Z,3.22
2023-02-26T16:14:53.968Z,2.72
2023-02-26T16:17:28.408Z,2.83
2023-02-26T16:19:58.898Z,1.55
2023-02-26T16:22:50.542Z,1.88
2023-02-26T16:25:25.466Z,2.00
2023-02-26T16:28:01.478Z,2.63
2023-02-26T16:30:36.214Z,2.92
2023-02-26T16:33:08.040Z,4.18
2023-02-26T16:35:42.203Z,2.40
2023-02-26T16:38:19.777Z,3.35
2023-02-26T16:40:49.141Z,2.67
2023-02-26T16:43:42.776Z,2.95
2023-02-26T16:46:15.616Z,2.58
2023-02-26T16:48:53.943Z,2.75
2023-02-26T16:51:24.514Z,3.63
2023-02-26T16:54:03.607Z,2.20
2023-02-26T16:56:34.303Z,3.00
2023-02-26T16:59:17.747Z,3.97
2023-02-26T17:01:51.682Z,1.40
2023-02-26T17:04:21.115Z,3.87
2023-02-26T17:06:49.355Z,3.55
2023-02-26T17:09:37.902Z,2.00
2023-02-26T17:12:13.676Z,2.60
2023-02-26T17:14:45.872Z,1.63
2023-02-26T17:17:13.700Z,2.20
2023-02-26T17:19:41.300Z,1.67
2023-02-26T17:22:14.434Z,1.80
2023-02-26T17:24:45.555Z,1.67
2023-02-26T17:27:18.298Z,1.42
2023-02-26T17:29:51.064Z,1.83
2023-02-26T17:32:21.834Z,1.77
2023-02-26T17:34:50.458Z,2.28
2023-02-26T17:37:18.012Z,2.10
2023-02-26T17:39:45.789Z,1.90
2023-02-26T17:42:15.771Z,1.80
2023-02-26T17:44:43.837Z,1.80
2023-02-26T17:47:18.292Z,1.88
2023-02-26T17:49:46.803Z,2.00
2023-02-26T17:52:15.637Z,2.15
2023-02-26T17:54:43.518Z,2.17
2023-02-26T17:57:17.610Z,2.55
2023-02-26T17:59:46.459Z,2.70
2023-02-26T18:02:22.788Z,2.75
2023-02-26T18:04:50.192Z,2.35
2023-02-26T18:07:18.875Z,2.13
2023-02-26T18:09:48.014Z,2.20
2023-02-26T18:12:18.021Z,2.22
2023-02-26T18:14:46.417Z,3.03
2023-02-26T18:17:25.031Z,2.22
2023-02-26T18:19:53.055Z,3.05
2023-02-26T18:22:24.276Z,3.15
2023-02-26T18:24:52.308Z,2.65
2023-02-26T18:27:22.735Z,3.50
2023-02-26T18:29:50.479Z,2.80
2023-02-26T18:32:21.092Z,2.30
2023-02-26T18:34:50.366Z,2.75
2023-02-26T18:37:21.345Z,2.10
2023-02-26T18:39:49.193Z,2.22
2023-02-26T18:42:20.945Z,2.78
2023-02-26T18:44:49.435Z,2.38
2023-02-26T18:47:17.371Z,2.55
2023-02-26T18:49:45.243Z,2.22
2023-02-26T18:52:12.895Z,2.35
2023-02-26T18:54:40.615Z,2.08
2023-02-26T18:57:09.084Z,1.83
2023-02-26T18:59:36.614Z,2.55
2023-02-26T19:02:07.043Z,2.05
2023-02-26T19:04:35.494Z,2.60
2023-02-26T19:07:03.999Z,2.30
2023-02-26T19:09:31.736Z,1.90
2023-02-26T19:11:59.292Z,1.83
2023-02-26T19:14:26.941Z,1.70
2023-02-26T19:16:55.238Z,1.90
2023-02-26T19:19:22.598Z,1.40
2023-02-26T19:21:49.735Z,1.80
2023-02-26T19:24:17.512Z,1.50
2023-02-26T19:26:44.858Z,1.60
2023-02-26T19:29:16.348Z,1.60
2023-02-26T19:31:45.463Z,2.03
2023-02-26T19:34:13.481Z,1.70
2023-02-26T19:36:43.472Z,1.88
2023-02-26T19:39:11.968Z,1.30
2023-02-26T19:41:39.456Z,3.50
2023-02-26T19:44:06.948Z,3.72
2023-02-26T19:46:34.960Z,2.08
2023-02-26T19:49:02.390Z,2.83
2023-02-26T19:51:29.581Z,2.50
2023-02-26T19:53:57.385Z,1.88
2023-02-26T19:56:25.353Z,2.08
2023-02-26T19:58:52.971Z,3.30
2023-02-26T20:01:20.376Z,2.45
2023-02-26T20:03:49.053Z,1.80
2023-02-26T20:06:16.425Z,1.75
2023-02-26T20:08:43.936Z,2.60
2023-02-26T20:11:11.333Z,1.95
2023-02-26T20:13:39.579Z,1.83
2023-02-26T20:16:11.366Z,1.80
2023-02-26T20:18:39.278Z,1.98
2023-02-26T20:21:09.758Z,1.90
2023-02-26T20:23:38.428Z,1.90
2023-02-26T20:26:09.601Z,2.08
2023-02-26T20:28:37.104Z,1.33
2023-02-26T20:31:04.457Z,1.90
2023-02-26T20:33:33.771Z,1.98
2023-02-26T20:36:01.717Z,2.20
2023-02-26T20:38:29.362Z,2.40
2023-02-26T20:40:57.249Z,1.70
2023-02-26T20:43:25.318Z,3.08
2023-02-26T20:45:55.156Z,2.30
2023-02-26T20:48:23.144Z,3.33
2023-02-26T20:50:53.651Z,3.47
2023-02-26T20:53:22.010Z,3.00
2023-02-26T20:55:49.373Z,2.92
2023-02-26T20:58:16.487Z,3.83
2023-02-26T21:00:43.779Z,2.70
2023-02-26T21:03:10.969Z,3.53
2023-02-26T21:05:38.753Z,2.47
2023-02-26T21:08:05.879Z,2.35
2023-02-26T21:10:33.165Z,2.72
2023-02-26T21:13:00.513Z,2.33
2023-02-26T21:15:28.077Z,2.33
2023-02-26T21:17:55.292Z,2.20
2023-02-26T21:20:23.489Z,2.47
2023-02-26T21:22:51.175Z,2.28
2023-02-26T21:25:18.585Z,1.83
2023-02-26T21:27:45.663Z,1.67
2023-02-26T21:30:13.937Z,1.90
2023-02-26T21:32:41.852Z,2.45
2023-02-26T21:35:16.245Z,1.88
2023-02-26T21:40:14.574Z,2.13
2023-02-26T21:42:42.996Z,2.13
2023-02-26T21:45:11.517Z,2.03
2023-02-26T21:47:38.926Z,2.50
2023-02-26T21:50:07.255Z,2.40
2023-02-26T21:52:34.553Z,2.30
2023-02-26T21:55:02.303Z,2.50
2023-02-26T21:57:29.986Z,2.55
2023-02-26T21:59:57.328Z,2.50
2023-02-26T22:02:24.899Z,2.20
2023-02-26T22:04:52.119Z,2.03
2023-02-26T22:07:19.918Z,2.20
2023-02-26T22:09:49.135Z,2.30
2023-02-26T22:12:17.389Z,1.98
2023-02-26T22:14:44.686Z,2.00
2023-02-26T22:17:12.390Z,1.90
2023-02-26T22:19:39.568Z,2.28
2023-02-26T22:22:06.937Z,1.88
2023-02-26T22:24:34.059Z,2.22
2023-02-26T22:27:01.211Z,1.77
2023-02-26T22:29:29.035Z,1.83
2023-02-26T22:31:56.927Z,1.83
2023-02-26T22:34:24.135Z,1.60
2023-02-26T22:36:52.576Z,1.98
2023-02-26T22:39:20.316Z,1.88
2023-02-26T22:41:48.087Z,1.80
2023-02-26T22:44:15.236Z,1.88
2023-02-26T22:46:42.698Z,1.67
2023-02-26T22:49:09.948Z,1.83
2023-02-26T22:51:37.277Z,1.80
2023-02-26T22:54:04.454Z,1.77
2023-02-26T22:56:31.890Z,1.63
2023-02-26T22:58:59.870Z,1.48
2023-02-26T23:01:29.936Z,1.60
2023-02-26T23:03:57.468Z,1.48
2023-02-26T23:06:24.563Z,1.30
2023-02-26T23:08:52.003Z,1.50
2023-02-26T23:11:19.368Z,1.30
2023-02-26T23:13:46.429Z,1.55
2023-02-26T23:16:13.877Z,1.30
2023-02-26T23:18:42.063Z,1.23
2023-02-26T23:21:09.260Z,1.50
2023-02-26T23:23:36.401Z,1.63
2023-02-26T23:26:04.172Z,1.55
2023-02-26T23:28:31.409Z,1.50
2023-02-26T23:30:58.750Z,1.33
2023-02-26T23:33:26.184Z,1.30
2023-02-26T23:35:53.456Z,1.60
2023-02-26T23:38:20.539Z,1.38
2023-02-26T23:40:48.404Z,1.63
2023-02-26T23:43:16.642Z,1.60
2023-02-26T23:45:44.326Z,1.48
2023-02-26T23:48:11.446Z,1.48
2023-02-26T23:50:38.586Z,1.27
2023-02-26T23:53:05.652Z,1.30
2023-02-26T23:55:32.806Z,1.80
2023-02-26T23:57:59.988Z,1.42
